Time;durP1;ratioP1;P1;durP2;ratioP2;P2;SDS_P1;SDS_P2;PMS_P1;PMS_P2;Temp;Humidity;BMP_temperature;BMP_pressure;BME280_temperature;BME280_humidity;BME280_pressure;Samples;Min_cycle;Max_cycle;Signal;HPM_P1;HPM_P2
2022/03/22 00:00:24;;;;;;;1.20;1.20;;;;;;;4.65;47.16;102732.11;103776;1274;99908;-65
2022/03/22 00:03:06;;;;;;;1.20;1.20;;;;;;;4.69;47.10;102728.70;103716;1274;110523;-63
2022/03/22 00:05:34;;;;;;;1.10;1.10;;;;;;;4.70;47.06;102729.98;103679;1274;138243;-65
2022/03/22 00:08:03;;;;;;;1.20;1.20;;;;;;;4.69;47.24;102731.18;103639;1274;96775;-65
2022/03/22 00:10:31;;;;;;;1.20;1.20;;;;;;;4.71;46.95;102728.79;103548;1276;136801;-65
2022/03/22 00:12:59;;;;;;;1.20;1.20;;;;;;;4.69;46.79;102728.01;103721;1274;99366;-66
2022/03/22 00:15:27;;;;;;;1.20;1.20;;;;;;;4.67;47.07;102728.64;103663;1274;137934;-67
2022/03/22 00:18:14;;;;;;;1.20;1.20;;;;;;;4.59;47.66;102723.06;103720;1274;95537;-66
2022/03/22 00:20:42;;;;;;;1.10;1.10;;;;;;;4.52;47.87;102726.88;103797;1274;96206;-65
2022/03/22 00:23:11;;;;;;;1.20;1.20;;;;;;;4.49;47.90;102721.33;103617;1274;137795;-65
2022/03/22 00:25:39;;;;;;;1.30;1.30;;;;;;;4.48;47.76;102724.81;103829;1274;98733;-66
2022/03/22 00:28:07;;;;;;;1.30;1.30;;;;;;;4.49;47.58;102726.08;103647;1274;137972;-65
2022/03/22 00:30:35;;;;;;;1.20;1.20;;;;;;;4.48;47.58;102721.99;103774;1274;95370;-64
2022/03/22 00:33:05;;;;;;;1.10;1.10;;;;;;;4.43;47.83;102721.46;103858;1274;95231;-65
2022/03/22 00:35:36;;;;;;;1.20;1.20;;;;;;;4.37;48.10;102721.05;103606;1274;137915;-64
2022/03/22 00:38:11;;;;;;;1.10;1.10;;;;;;;4.33;48.21;102721.63;103896;1274;99396;-64
2022/03/22 00:40:40;;;;;;;1.20;1.20;;;;;;;4.31;48.28;102718.19;103842;1273;137731;-64
2022/03/22 00:43:08;;;;;;;1.10;1.10;;;;;;;4.30;48.07;102716.21;103759;1274;95620;-64
2022/03/22 00:45:37;;;;;;;1.20;1.20;;;;;;;4.28;47.88;102718.61;103629;1274;137970;-66
2022/03/22 00:48:07;;;;;;;1.20;1.20;;;;;;;4.25;48.18;102719.54;103933;1274;109768;-65
2022/03/22 00:50:38;;;;;;;1.20;1.20;;;;;;;4.29;48.14;102717.26;103778;1274;100396;-64
2022/03/22 00:53:07;;;;;;;1.20;1.20;;;;;;;4.22;48.14;102715.23;103913;1274;137943;-66
2022/03/22 00:55:36;;;;;;;1.20;1.20;;;;;;;4.18;48.26;102715.79;104010;1274;95661;-65
2022/03/22 00:58:04;;;;;;;1.10;1.10;;;;;;;4.14;48.50;102714.76;103769;1274;138580;-66
2022/03/22 01:00:33;;;;;;;1.20;1.20;;;;;;;4.14;48.53;102711.61;103701;1274;109789;-65
2022/03/22 01:03:02;;;;;;;1.20;1.20;;;;;;;4.15;48.69;102711.11;103867;1274;99628;-63
2022/03/22 01:05:32;;;;;;;1.20;1.20;;;;;;;4.13;48.70;102711.74;103731;1274;137815;-63
2022/03/22 01:08:11;;;;;;;1.20;1.20;;;;;;;4.01;48.96;102708.66;103634;1276;95236;-65
2022/03/22 01:10:43;;;;;;;1.20;1.20;;;;;;;3.91;49.32;102713.73;103778;1274;137783;-65
2022/03/22 01:13:11;;;;;;;1.30;1.30;;;;;;;3.85;49.66;102710.14;103777;1274;109801;-65
2022/03/22 01:15:42;;;;;;;1.20;1.20;;;;;;;3.81;49.49;102707.55;103572;1274;138147;-65
2022/03/22 01:18:12;;;;;;;1.30;1.30;;;;;;;3.83;49.59;102705.70;104089;1274;107893;-64
2022/03/22 01:20:49;;;;;;;1.30;1.30;;;;;;;3.89;49.30;102705.18;104030;1274;95613;-65
2022/03/22 01:23:21;;;;;;;1.30;1.30;;;;;;;3.86;49.62;102708.07;103833;1274;137823;-64
2022/03/22 01:25:49;;;;;;;1.40;1.40;;;;;;;3.88;49.36;102704.60;103347;1274;488175;-65
2022/03/22 01:28:17;;;;;;;1.20;1.20;;;;;;;3.87;49.61;102704.92;103622;1274;138099;-66
2022/03/22 01:30:45;;;;;;;1.30;1.30;;;;;;;3.86;49.63;102704.90;103764;1274;108156;-65
2022/03/22 01:33:12;;;;;;;1.20;1.20;;;;;;;3.80;49.62;102708.02;103702;1274;95330;-64
2022/03/22 01:35:42;;;;;;;1.20;1.20;;;;;;;3.74;49.90;102705.85;103801;1274;137620;-64
2022/03/22 01:38:10;;;;;;;1.30;1.30;;;;;;;3.71;49.99;102708.39;103784;1274;110152;-66
2022/03/22 01:40:38;;;;;;;1.40;1.40;;;;;;;3.65;50.53;102709.02;103610;1274;137838;-65
2022/03/22 01:43:07;;;;;;;1.30;1.30;;;;;;;3.64;50.46;102703.70;103920;1274;108549;-65
2022/03/22 01:45:35;;;;;;;1.20;1.20;;;;;;;3.60;50.23;102706.35;103595;1274;139023;-65
2022/03/22 01:48:04;;;;;;;1.30;1.30;;;;;;;3.52;50.72;102704.47;103759;1274;95217;-66
2022/03/22 01:50:32;;;;;;;1.20;1.20;;;;;;;3.42;50.80;102707.94;103887;1274;110206;-66
2022/03/22 01:53:01;;;;;;;1.30;1.30;;;;;;;3.34;50.98;102705.69;103677;1274;137975;-64
2022/03/22 01:55:29;;;;;;;1.30;1.30;;;;;;;3.29;51.12;102705.48;103852;1274;109760;-65
2022/03/22 01:57:57;;;;;;;1.20;1.20;;;;;;;3.30;51.56;102704.83;103672;1274;138127;-65
2022/03/22 02:00:25;;;;;;;1.40;1.40;;;;;;;3.30;51.12;102709.39;103751;1274;95227;-64
2022/03/22 02:05:56;;;;;;;1.30;1.30;;;;;;;3.41;50.58;102712.08;103705;1274;138301;-65
2022/03/22 02:08:26;;;;;;;1.40;1.40;;;;;;;3.40;50.80;102712.39;103744;1274;108039;-65
2022/03/22 02:10:56;;;;;;;1.40;1.40;;;;;;;3.39;50.94;102707.45;103671;1272;138510;-64
2022/03/22 02:13:24;;;;;;;1.30;1.30;;;;;;;3.39;51.28;102710.96;103943;1274;95211;-65
2022/03/22 02:15:57;;;;;;;1.20;1.20;;;;;;;3.42;51.43;102706.87;103567;1274;138154;-66
2022/03/22 02:18:25;;;;;;;1.20;1.20;;;;;;;3.41;51.12;102704.38;104003;1274;99692;-64
2022/03/22 02:20:54;;;;;;;1.20;1.20;;;;;;;3.41;51.21;102701.23;103716;1274;108586;-62
2022/03/22 02:23:44;;;;;;;1.20;1.20;;;;;;;3.41;51.38;102702.25;103560;1274;138005;-64
2022/03/22 02:26:12;;;;;;;1.30;1.30;;;;;;;3.36;51.43;102703.63;103649;1274;95213;-65
2022/03/22 02:28:42;;;;;;;1.30;1.30;;;;;;;3.33;51.38;102704.58;103712;1274;137896;-66
2022/03/22 02:31:10;;;;;;;1.30;1.30;;;;;;;3.26;51.50;102705.55;103503;1276;97403;-65
2022/03/22 02:33:42;;;;;;;1.50;1.50;;;;;;;3.07;51.96;102708.98;103592;1274;138035;-64
2022/03/22 02:36:10;;;;;;;1.40;1.40;;;;;;;3.03;52.12;102710.88;103692;1274;95637;-64
2022/03/22 02:38:39;;;;;;;1.30;1.30;;;;;;;3.13;51.99;102710.95;103751;1274;97005;-65
2022/03/22 02:41:07;;;;;;;1.30;1.30;;;;;;;3.16;51.89;102710.40;103665;1274;137790;-65
2022/03/22 02:43:35;;;;;;;1.30;1.30;;;;;;;3.17;51.83;102708.16;104060;1274;99425;-65
2022/03/22 02:46:03;;;;;;;1.30;1.30;;;;;;;3.23;51.69;102709.44;103645;1274;138113;-64
2022/03/22 02:48:30;;;;;;;1.40;1.40;;;;;;;3.22;51.60;102709.05;103796;1274;96117;-64
2022/03/22 02:50:58;;;;;;;1.30;1.30;;;;;;;3.15;51.99;102709.98;103757;1274;95357;-66
2022/03/22 02:53:26;;;;;;;1.40;1.40;;;;;;;3.10;51.88;102707.34;103672;1274;137868;-64
2022/03/22 02:55:54;;;;;;;1.40;1.40;;;;;;;3.07;52.21;102710.20;103773;1274;99413;-65
2022/03/22 02:58:23;;;;;;;1.40;1.40;;;;;;;3.03;52.42;102711.59;103582;1274;138770;-66
2022/03/22 03:00:50;;;;;;;1.30;1.30;;;;;;;3.03;52.23;102716.35;103731;1275;95801;-64
2022/03/22 03:03:22;;;;;;;1.40;1.40;;;;;;;3.04;52.40;102716.20;103652;1277;138409;-64
2022/03/22 03:05:52;;;;;;;1.30;1.30;;;;;;;3.02;52.17;102717.52;103903;1274;110787;-64
2022/03/22 03:08:19;;;;;;;1.40;1.40;;;;;;;3.03;52.47;102717.02;103803;1274;99523;-64
2022/03/22 03:10:47;;;;;;;1.40;1.40;;;;;;;3.05;52.15;102719.92;103626;1274;138142;-64
2022/03/22 03:13:15;;;;;;;1.50;1.50;;;;;;;3.02;52.09;102723.67;103696;1274;96009;-65
2022/03/22 03:15:44;;;;;;;1.40;1.40;;;;;;;3.03;51.92;102725.63;103630;1274;138530;-66
2022/03/22 03:18:13;;;;;;;1.50;1.50;;;;;;;3.03;52.39;102727.04;103594;1274;109725;-65
2022/03/22 03:20:40;;;;;;;1.40;1.40;;;;;;;2.98;53.01;102726.15;103549;1273;99386;-64
2022/03/22 03:23:08;;;;;;;1.30;1.30;;;;;;;3.00;52.51;102727.43;103549;1274;138646;-64
2022/03/22 03:25:36;;;;;;;1.40;1.40;;;;;;;2.98;52.59;102727.90;103648;1274;96108;-65
2022/03/22 03:28:04;;;;;;;1.40;1.40;;;;;;;2.95;52.43;102728.61;103528;1274;137846;-66
2022/03/22 03:30:32;;;;;;;1.40;1.40;;;;;;;3.01;52.10;102728.89;103660;1274;110920;-65
2022/03/22 03:33:00;;;;;;;1.40;1.40;;;;;;;3.04;52.06;102729.71;103711;1274;99516;-66
2022/03/22 03:35:28;;;;;;;1.40;1.40;;;;;;;3.06;51.82;102729.08;103667;1274;137858;-65
2022/03/22 03:37:57;;;;;;;1.40;1.40;;;;;;;3.08;51.75;102729.36;103741;1274;95518;-64
2022/03/22 03:41:53;;;;;;;1.40;1.40;;;;;;;3.02;52.04;102730.86;103660;1274;137716;-65
2022/03/22 03:43:13;;;;;;;1.50;1.50;;;;;;;2.93;52.44;102730.48;103635;1276;109859;-65
2022/03/22 03:48:27;;;;;;;1.30;1.30;;;;;;;2.85;52.64;102731.38;103664;1274;108318;-65
2022/03/22 03:50:55;;;;;;;1.30;1.30;;;;;;;2.88;52.91;102729.89;103621;1274;95525;-64
2022/03/22 03:53:23;;;;;;;1.40;1.40;;;;;;;2.92;52.48;102732.36;103556;1274;137746;-64
2022/03/22 03:55:51;;;;;;;1.40;1.40;;;;;;;2.90;52.38;102734.76;103678;1274;109856;-63
2022/03/22 03:58:19;;;;;;;1.40;1.40;;;;;;;2.87;52.58;102737.23;103623;1274;138092;-66
2022/03/22 04:00:46;;;;;;;1.40;1.40;;;;;;;2.85;52.68;102741.89;103658;1274;108831;-67
2022/03/22 04:03:14;;;;;;;1.40;1.40;;;;;;;2.82;52.83;102740.35;103743;1274;95645;-66
2022/03/22 04:05:43;;;;;;;1.50;1.50;;;;;;;2.80;53.05;102743.08;103587;1274;137847;-66
2022/03/22 04:08:11;;;;;;;1.30;1.30;;;;;;;2.86;52.60;102741.06;103706;1274;109689;-63
2022/03/22 04:10:39;;;;;;;1.30;1.30;;;;;;;2.87;52.61;102744.42;103600;1277;137972;-66
2022/03/22 04:13:06;;;;;;;1.40;1.40;;;;;;;2.88;52.76;102743.23;103715;1274;108836;-64
2022/03/22 04:15:34;;;;;;;1.30;1.30;;;;;;;2.87;52.95;102748.79;103616;1274;138749;-64
2022/03/22 04:18:02;;;;;;;1.40;1.40;;;;;;;2.82;53.29;102751.05;103682;1274;95246;-65
2022/03/22 04:20:30;;;;;;;1.40;1.40;;;;;;;2.76;53.33;102750.77;103702;1274;109712;-65
2022/03/22 04:22:59;;;;;;;1.40;1.40;;;;;;;2.72;53.42;102749.56;103749;1274;138721;-64
2022/03/22 04:25:26;;;;;;;1.30;1.30;;;;;;;2.75;53.35;102746.89;103687;1274;108822;-66
2022/03/22 04:33:28;;;;;;;1.50;1.50;;;;;;;2.56;53.90;102742.90;103616;1274;138253;-66
2022/03/22 04:35:56;;;;;;;1.50;1.50;;;;;;;2.47;54.20;102744.98;103780;1273;99413;-65
2022/03/22 04:38:25;;;;;;;1.40;1.40;;;;;;;2.44;54.37;102741.31;103776;1274;108834;-63
2022/03/22 04:40:53;;;;;;;1.40;1.40;;;;;;;2.53;54.28;102742.27;103634;1274;138373;-63
2022/03/22 04:43:21;;;;;;;1.40;1.40;;;;;;;2.60;54.21;102745.70;103704;1274;95687;-66
2022/03/22 04:45:49;;;;;;;1.50;1.50;;;;;;;2.68;53.44;102745.35;103660;1274;138979;-64
2022/03/22 04:48:17;;;;;;;1.40;1.40;;;;;;;2.67;53.75;102744.12;103663;1274;98417;-64
2022/03/22 04:50:45;;;;;;;1.40;1.40;;;;;;;2.65;53.97;102742.59;103686;1274;108884;-64
2022/03/22 04:58:48;;;;;;;1.30;1.30;;;;;;;2.65;53.92;102747.14;103582;1274;138631;-66
2022/03/22 05:01:16;;;;;;;1.40;1.40;;;;;;;2.74;53.86;102751.05;103725;1274;99437;-63
2022/03/22 05:03:44;;;;;;;1.40;1.40;;;;;;;2.76;53.45;102752.23;103507;1273;137852;-65
2022/03/22 05:06:27;;;;;;;1.50;1.50;;;;;;;2.74;54.48;102750.18;103757;1274;95627;-66
2022/03/22 05:08:55;;;;;;;1.80;1.80;;;;;;;2.76;54.00;102752.19;103761;1274;95295;-64
2022/03/22 05:11:23;;;;;;;1.80;1.80;;;;;;;2.76;54.08;102753.27;103669;1274;137233;-65
2022/03/22 05:13:54;;;;;;;1.40;1.40;;;;;;;2.81;53.99;102756.28;103715;1277;98269;-65
2022/03/22 05:16:26;;;;;;;1.40;1.40;;;;;;;2.85;54.04;102755.05;103724;1274;137732;-63
2022/03/22 05:18:55;;;;;;;1.40;1.40;;;;;;;2.87;54.27;102754.95;103801;1277;95726;-64
2022/03/22 05:21:24;;;;;;;1.50;1.50;;;;;;;2.86;54.47;102755.96;103535;1274;137991;-66
2022/03/22 05:23:52;;;;;;;1.40;1.40;;;;;;;2.82;54.37;102756.51;103925;1274;109727;-64
2022/03/22 05:26:25;;;;;;;1.40;1.40;;;;;;;2.80;54.92;102752.56;103720;1274;100673;-64
2022/03/22 05:28:54;;;;;;;1.40;1.40;;;;;;;2.91;54.71;102756.33;103544;1276;137118;-65
2022/03/22 05:31:22;;;;;;;1.30;1.30;;;;;;;2.98;54.66;102758.27;103841;1271;95647;-66
2022/03/22 05:33:54;;;;;;;1.30;1.30;;;;;;;3.04;54.57;102753.94;103805;1274;138429;-66
2022/03/22 05:36:22;;;;;;;1.30;1.30;;;;;;;3.08;54.32;102751.46;103785;1274;109309;-64
2022/03/22 05:38:52;;;;;;;1.40;1.40;;;;;;;3.10;54.26;102755.79;103694;1274;98563;-66
2022/03/22 05:41:20;;;;;;;1.50;1.50;;;;;;;3.14;54.18;102755.75;103523;1274;138917;-65
2022/03/22 05:43:48;;;;;;;1.30;1.30;;;;;;;3.27;54.54;102754.89;103876;1274;95218;-65
2022/03/22 05:46:18;;;;;;;1.30;1.30;;;;;;;3.35;54.56;102756.11;103871;1274;138776;-64
2022/03/22 05:48:48;;;;;;;1.20;1.20;;;;;;;3.40;54.53;102757.73;103901;1274;109659;-63
2022/03/22 05:51:19;;;;;;;1.20;1.20;;;;;;;3.40;54.68;102760.54;103966;1274;99446;-64
2022/03/22 05:53:47;;;;;;;1.30;1.30;;;;;;;3.45;54.78;102755.46;103736;1274;138011;-65
2022/03/22 05:56:15;;;;;;;1.30;1.30;;;;;;;3.53;55.01;102757.55;103509;1274;96528;-65
2022/03/22 05:58:43;;;;;;;1.20;1.20;;;;;;;3.66;54.93;102757.72;103525;1275;138397;-65
2022/03/22 06:01:12;;;;;;;1.40;1.40;;;;;;;3.81;54.44;102756.91;103658;1274;109675;-63
2022/03/22 06:03:40;;;;;;;1.20;1.20;;;;;;;3.94;54.85;102758.30;103661;1274;138082;-66
2022/03/22 06:06:08;;;;;;;1.10;1.10;;;;;;;4.10;54.44;102758.19;103696;1274;108870;-66
2022/03/22 06:08:36;;;;;;;1.20;1.20;;;;;;;4.20;53.80;102755.40;103796;1274;95217;-65
2022/03/22 06:11:04;;;;;;;1.20;1.20;;;;;;;4.32;53.11;102751.27;103539;1274;137860;-65
2022/03/22 06:13:32;;;;;;;1.30;1.30;;;;;;;4.43;52.82;102752.92;103787;1273;109895;-65
2022/03/22 06:16:00;;;;;;;1.10;1.10;;;;;;;4.51;52.04;102751.48;103483;1274;138794;-64
2022/03/22 06:18:29;;;;;;;1.00;1.00;;;;;;;4.62;52.11;102756.81;104163;1273;108618;-64
2022/03/22 06:20:56;;;;;;;1.20;1.20;;;;;;;4.71;51.33;102755.55;103547;1274;96029;-65
2022/03/22 06:23:25;;;;;;;1.10;1.10;;;;;;;4.82;50.63;102755.05;103892;1274;137845;-65
2022/03/22 06:25:53;;;;;;;1.00;1.00;;;;;;;4.94;50.47;102754.07;103628;1274;110223;-65
2022/03/22 06:28:21;;;;;;;1.00;1.00;;;;;;;5.07;49.97;102751.34;103578;1274;137922;-67
2022/03/22 06:30:49;;;;;;;1.00;1.00;;;;;;;5.21;50.23;102754.10;103884;1274;109075;-67
2022/03/22 06:33:17;;;;;;;1.00;1.00;;;;;;;5.36;50.29;102754.06;103915;1274;95306;-68
2022/03/22 06:35:46;;;;;;;1.00;1.00;;;;;;;5.49;50.32;102756.80;103777;1274;138508;-70
2022/03/22 06:38:14;;;;;;;1.00;1.00;;;;;;;5.65;50.07;102751.83;103871;1274;109687;-67
2022/03/22 06:40:43;;;;;;;0.90;0.90;;;;;;;5.80;49.97;102753.55;103848;1274;138142;-69
2022/03/22 06:43:14;;;;;;;1.00;1.00;;;;;;;5.94;49.84;102752.23;103920;1274;108619;-68
2022/03/22 06:45:46;;;;;;;0.90;0.90;;;;;;;6.07;49.38;102751.58;103888;1274;138568;-67
2022/03/22 06:48:17;;;;;;;0.90;0.90;;;;;;;6.20;49.23;102745.11;103903;1274;95526;-69
2022/03/22 06:50:49;;;;;;;0.90;0.90;;;;;;;6.36;49.06;102752.42;103808;1274;109434;-67
2022/03/22 06:53:18;;;;;;;0.80;0.80;;;;;;;6.51;48.99;102748.46;103765;1274;138442;-69
2022/03/22 06:55:47;;;;;;;0.80;0.80;;;;;;;6.66;48.41;102753.48;103831;1274;109036;-67
2022/03/22 06:58:18;;;;;;;0.90;0.90;;;;;;;6.76;47.99;102753.02;103954;1274;138019;-65
2022/03/22 07:00:47;;;;;;;0.80;0.80;;;;;;;6.84;47.97;102749.90;103935;1274;95768;-64
2022/03/22 07:03:15;;;;;;;0.80;0.80;;;;;;;6.99;47.91;102748.70;104058;1274;110172;-68
2022/03/22 07:05:47;;;;;;;0.70;0.70;;;;;;;7.20;47.38;102750.99;103793;1274;138432;-69
2022/03/22 07:08:15;;;;;;;0.70;0.70;;;;;;;7.37;46.95;102751.25;103865;1274;108852;-69
2022/03/22 07:11:47;;;;;;;0.80;0.80;;;;;;;7.52;46.46;102753.74;103729;1274;138014;-67
2022/03/22 07:13:32;;;;;;;0.70;0.70;;;;;;;7.69;46.82;102750.44;103933;1274;95919;-68
2022/03/22 07:16:00;;;;;;;0.70;0.70;;;;;;;7.85;45.89;102749.74;103800;1274;138705;-69
2022/03/22 07:18:28;;;;;;;0.70;0.70;;;;;;;7.99;46.08;102749.17;104079;1274;99629;-69
2022/03/22 07:20:56;;;;;;;0.60;0.60;;;;;;;8.15;45.71;102749.89;103820;1274;108665;-68
2022/03/22 07:23:24;;;;;;;0.60;0.60;;;;;;;8.25;45.17;102748.48;103759;1274;138824;-66
2022/03/22 07:25:52;;;;;;;0.70;0.70;;;;;;;8.38;45.19;102750.00;103948;1274;95520;-69
2022/03/22 07:28:19;;;;;;;0.70;0.70;;;;;;;8.56;44.77;102748.63;103674;1274;137855;-69
2022/03/22 07:30:47;;;;;;;0.70;0.70;;;;;;;8.70;44.10;102748.38;103808;1274;100302;-67
2022/03/22 07:33:15;;;;;;;0.70;0.70;;;;;;;8.83;43.99;102746.48;103767;1274;108974;-67
2022/03/22 07:35:43;;;;;;;0.70;0.70;;;;;;;8.96;43.73;102748.14;103716;1274;138248;-69
2022/03/22 07:38:10;;;;;;;0.60;0.60;;;;;;;9.09;43.92;102747.48;103755;1274;95234;-70
2022/03/22 07:40:39;;;;;;;0.60;0.60;;;;;;;9.23;43.24;102745.61;103596;1274;137839;-68
2022/03/22 07:43:07;;;;;;;0.50;0.50;;;;;;;9.34;42.79;102747.92;103694;1274;99450;-68
2022/03/22 07:45:36;;;;;;;0.50;0.50;;;;;;;9.45;42.39;102747.75;103633;1274;139149;-68
2022/03/22 07:48:05;;;;;;;0.50;0.50;;;;;;;9.56;42.42;102745.63;103895;1274;95312;-68
2022/03/22 07:53:19;;;;;;;0.50;0.50;;;;;;;9.98;42.28;102743.05;103625;1274;137961;-67
2022/03/22 07:55:47;;;;;;;0.50;0.40;;;;;;;10.18;41.55;102739.76;103727;1274;99658;-69
2022/03/22 07:58:15;;;;;;;0.50;0.50;;;;;;;10.32;41.16;102738.17;103689;1274;139329;-68
2022/03/22 08:00:43;;;;;;;0.50;0.50;;;;;;;10.46;40.76;102735.16;103811;1274;95572;-68
2022/03/22 08:03:15;;;;;;;0.40;0.40;;;;;;;10.63;40.62;102740.70;103586;1274;95243;-69
2022/03/22 08:05:45;;;;;;;0.50;0.40;;;;;;;10.77;39.66;102743.86;106263;1274;139395;-67
2022/03/22 08:08:14;;;;;;;0.50;0.40;;;;;;;10.88;39.66;102741.31;103608;1276;98451;-65
2022/03/22 08:11:05;;;;;;;0.40;0.40;;;;;;;11.06;39.34;102747.52;103418;1274;138111;-69
2022/03/22 08:13:34;;;;;;;0.50;0.40;;;;;;;11.19;38.81;102747.29;103777;1274;97047;-71
2022/03/22 08:16:07;;;;;;;0.40;0.40;;;;;;;11.30;38.05;102746.67;103708;1274;138989;-66
2022/03/22 08:18:35;;;;;;;0.40;0.30;;;;;;;11.42;37.91;102743.58;105033;1274;138670;-68
2022/03/22 08:21:03;;;;;;;0.40;0.40;;;;;;;11.58;37.80;102740.33;103497;1276;99384;-66
2022/03/22 08:23:30;;;;;;;0.40;0.30;;;;;;;11.75;37.46;102736.33;103820;1276;138631;-67
2022/03/22 08:25:58;;;;;;;0.40;0.30;;;;;;;11.92;36.70;102733.96;103532;1277;95396;-68
2022/03/22 08:28:26;;;;;;;0.40;0.30;;;;;;;12.08;36.32;102735.13;103492;1277;98214;-67
2022/03/22 08:30:54;;;;;;;0.40;0.30;;;;;;;12.22;36.09;102730.39;103399;1277;138898;-70
2022/03/22 08:33:22;;;;;;;0.40;0.30;;;;;;;12.37;35.95;102727.95;103541;1277;98926;-67
2022/03/22 08:35:52;;;;;;;0.40;0.30;;;;;;;12.52;35.92;102729.08;103346;1276;138566;-69
2022/03/22 08:38:20;;;;;;;0.40;0.30;;;;;;;12.67;35.69;102725.55;103489;1276;95651;-68
2022/03/22 08:40:49;;;;;;;0.40;0.30;;;;;;;12.84;35.08;102727.38;103443;1277;138901;-67
2022/03/22 08:43:19;;;;;;;0.40;0.30;;;;;;;12.91;34.35;102722.57;103709;1275;108673;-68
2022/03/22 08:45:47;;;;;;;0.40;0.30;;;;;;;12.93;34.44;102722.21;103596;1276;99446;-68
2022/03/22 08:48:15;;;;;;;0.40;0.30;;;;;;;13.05;34.33;102721.52;103398;1277;138067;-68
2022/03/22 08:50:46;;;;;;;0.40;0.30;;;;;;;13.23;33.49;102722.05;103465;1276;95411;-68
2022/03/22 08:53:16;;;;;;;0.40;0.20;;;;;;;13.35;33.33;102720.64;103505;1276;138279;-68
2022/03/22 08:55:51;;;;;;;0.40;0.30;;;;;;;13.37;33.12;102720.30;103583;1276;108663;-68
2022/03/22 08:58:19;;;;;;;0.40;0.20;;;;;;;13.46;33.72;102719.41;103498;1276;99495;-69
2022/03/22 09:00:48;;;;;;;0.40;0.30;;;;;;;13.70;33.83;102715.79;103470;1277;137964;-69
2022/03/22 09:03:19;;;;;;;0.40;0.30;;;;;;;14.38;32.92;102714.29;103677;1277;95317;-68
2022/03/22 09:08:36;;;;;;;0.40;0.20;;;;;;;17.15;28.30;102707.20;103724;1276;109706;-68
2022/03/22 09:11:05;;;;;;;0.40;0.20;;;;;;;18.87;26.06;102700.71;103575;1276;138484;-68
2022/03/22 09:13:39;;;;;;;0.40;0.20;;;;;;;20.58;24.19;102697.10;103768;1275;109404;-67
2022/03/22 09:16:09;;;;;;;0.40;0.10;;;;;;;21.91;22.14;102694.77;103527;1277;95306;-68
2022/03/22 09:18:37;;;;;;;0.40;0.10;;;;;;;23.16;20.88;102691.11;103474;1277;138016;-68
2022/03/22 09:21:05;;;;;;;0.40;0.10;;;;;;;24.45;20.78;102687.62;103543;1277;109275;-69
2022/03/22 09:23:33;;;;;;;0.40;0.10;;;;;;;25.71;18.52;102684.55;103445;1277;140226;-68
2022/03/22 09:26:02;;;;;;;0.40;0.10;;;;;;;26.10;17.03;102683.21;103495;1277;108371;-66
2022/03/22 09:28:29;;;;;;;0.40;0.10;;;;;;;26.28;16.72;102679.48;103556;1277;96371;-68
2022/03/22 09:30:57;;;;;;;0.40;0.00;;;;;;;26.79;16.63;102679.66;103411;1277;138359;-69
2022/03/22 09:33:26;;;;;;;0.40;0.10;;;;;;;26.98;16.16;102677.27;103672;1276;110127;-69
2022/03/22 09:35:57;;;;;;;0.40;0.00;;;;;;;27.52;16.08;102674.00;103294;1277;138485;-69
2022/03/22 09:38:25;;;;;;;0.40;0.00;;;;;;;27.93;15.73;102669.06;103343;1277;108820;-69
2022/03/22 09:40:53;;;;;;;0.40;0.00;;;;;;;27.44;16.00;102671.90;103333;1276;138417;-69
2022/03/22 09:43:24;;;;;;;0.40;0.00;;;;;;;26.71;16.01;102671.92;103569;1277;95814;-68
2022/03/22 09:45:52;;;;;;;0.40;0.00;;;;;;;26.55;16.71;102669.33;103514;1277;109860;-69
2022/03/22 09:48:20;;;;;;;0.40;0.00;;;;;;;27.00;16.12;102669.86;103698;1277;137446;-69
2022/03/22 09:53:35;;;;;;;0.40;0.00;;;;;;;26.67;15.19;102666.85;103348;1277;138369;-68
2022/03/22 09:56:03;;;;;;;0.40;0.00;;;;;;;27.30;14.83;102660.95;103519;1277;96029;-69
2022/03/22 09:58:36;;;;;;;0.40;0.00;;;;;;;28.37;14.56;102658.38;103453;1276;110743;-69
2022/03/22 10:01:05;;;;;;;0.40;0.00;;;;;;;29.18;14.42;102654.42;104186;1276;138186;-68
2022/03/22 10:03:33;;;;;;;0.40;0.00;;;;;;;29.82;13.07;102648.33;103447;1277;108787;-67
2022/03/22 10:06:07;;;;;;;0.40;0.00;;;;;;;30.09;12.84;102647.76;103278;1277;138685;-66
2022/03/22 10:08:48;;;;;;;0.40;0.00;;;;;;;30.49;12.32;102650.02;104119;1276;95465;-69
2022/03/22 10:11:17;;;;;;;0.40;0.00;;;;;;;30.53;12.23;102648.95;103531;1277;137463;-68
2022/03/22 10:13:53;;;;;;;0.40;0.00;;;;;;;30.27;12.24;102649.56;103500;1277;99373;-68
2022/03/22 10:16:21;;;;;;;0.40;0.00;;;;;;;30.38;12.31;102648.38;103479;1277;107701;-69
2022/03/22 10:18:50;;;;;;;0.40;0.00;;;;;;;31.31;12.52;102646.08;103475;1277;138701;-69
2022/03/22 10:21:18;;;;;;;0.40;0.00;;;;;;;31.82;12.07;102642.23;103479;1277;96457;-69
2022/03/22 10:23:54;;;;;;;0.40;0.00;;;;;;;33.03;12.02;102641.29;103368;1276;138263;-69
2022/03/22 10:26:35;;;;;;;0.40;0.00;;;;;;;33.79;10.50;102641.48;103506;1277;99410;-69
2022/03/22 10:29:04;;;;;;;0.40;0.00;;;;;;;33.72;10.59;102642.80;103392;1276;138396;-69
2022/03/22 10:31:33;;;;;;;0.40;0.00;;;;;;;33.51;10.37;102644.30;103448;1276;95128;-69
2022/03/22 10:34:03;;;;;;;0.40;0.00;;;;;;;33.55;10.74;102640.43;103486;1277;95594;-69
2022/03/22 10:36:37;;;;;;;0.40;0.00;;;;;;;33.72;10.29;102633.80;103660;1275;138483;-69
2022/03/22 10:39:08;;;;;;;0.40;0.00;;;;;;;33.69;10.01;102629.48;103485;1277;99912;-69
2022/03/22 10:41:42;;;;;;;0.40;0.00;;;;;;;33.61;10.50;102631.65;103516;1276;138605;-69
2022/03/22 10:44:15;;;;;;;0.40;0.00;;;;;;;33.73;10.54;102624.82;104533;1276;95252;-68
2022/03/22 10:46:46;;;;;;;0.40;0.00;;;;;;;34.85;10.30;102620.79;103505;1276;138498;-68
2022/03/22 10:49:16;;;;;;;0.40;0.00;;;;;;;35.84;9.80;102617.39;103527;1278;110023;-68
2022/03/22 10:52:00;;;;;;;0.40;0.00;;;;;;;36.08;8.83;102617.70;103381;1276;99562;-69
2022/03/22 10:54:28;;;;;;;0.40;0.00;;;;;;;33.87;9.89;102615.91;103431;1276;138410;-68
2022/03/22 10:56:57;;;;;;;0.40;0.00;;;;;;;31.37;11.11;102616.92;103490;1277;97339;-69
2022/03/22 10:59:27;;;;;;;0.40;0.00;;;;;;;29.18;11.97;102617.02;103393;1277;139379;-69
2022/03/22 11:01:57;;;;;;;0.40;0.00;;;;;;;27.65;13.15;102612.43;103631;1277;110321;-69
2022/03/22 11:04:26;;;;;;;0.40;0.00;;;;;;;26.77;14.26;102612.70;103498;1277;99494;-69
2022/03/22 11:07:02;;;;;;;0.40;0.00;;;;;;;25.87;14.88;102608.73;103333;1277;138774;-68
2022/03/22 11:09:31;;;;;;;0.40;0.00;;;;;;;24.54;15.24;102613.10;103558;1277;95844;-69
2022/03/22 11:12:01;;;;;;;0.40;0.00;;;;;;;23.35;16.07;102614.70;103460;1276;138342;-66
2022/03/22 11:14:29;;;;;;;0.40;0.00;;;;;;;22.41;17.30;102610.73;103632;1277;109683;-68
2022/03/22 11:16:57;;;;;;;0.40;0.00;;;;;;;22.13;17.77;102603.86;103421;1277;138479;-68
2022/03/22 11:19:26;;;;;;;0.40;0.00;;;;;;;21.73;17.95;102603.80;103522;1277;108955;-65
2022/03/22 11:22:03;;;;;;;0.40;0.00;;;;;;;20.88;18.69;102607.16;103362;1277;95526;-66
2022/03/22 11:24:34;;;;;;;0.40;0.10;;;;;;;20.42;19.59;102602.36;103355;1277;138109;-66
2022/03/22 11:27:06;;;;;;;0.40;0.10;;;;;;;20.21;19.88;102602.14;103473;1277;108945;-66
2022/03/22 11:29:34;;;;;;;0.40;0.00;;;;;;;19.75;20.04;102594.66;103369;1276;138317;-66
2022/03/22 11:35:14;;;;;;;0.40;0.10;;;;;;;19.32;21.17;102587.78;102823;1282;138570;-65
2022/03/22 11:37:42;;;;;;;0.40;0.10;;;;;;;19.35;21.07;102581.56;103447;1277;95481;-65
2022/03/22 11:43:11;;;;;;;0.40;0.10;;;;;;;18.81;21.30;102578.15;103290;1277;138510;-66
2022/03/22 11:46:05;;;;;;;0.40;0.10;;;;;;;18.54;21.84;102575.23;103457;1277;109117;-67
2022/03/22 11:48:33;;;;;;;0.40;0.10;;;;;;;18.51;22.37;102570.61;103257;1276;138440;-65
2022/03/22 11:51:08;;;;;;;0.40;0.10;;;;;;;18.46;22.59;102571.13;103496;1277;95792;-65
2022/03/22 11:53:45;;;;;;;0.40;0.10;;;;;;;18.27;22.30;102570.31;103518;1277;138687;-66
2022/03/22 11:56:13;;;;;;;0.40;0.10;;;;;;;18.04;22.48;102570.65;103407;1277;99394;-66
2022/03/22 11:58:51;;;;;;;0.40;0.10;;;;;;;17.96;22.98;102564.52;103465;1277;108899;-66